Time;durP1;ratioP1;P1;durP2;ratioP2;P2;SDS_P1;SDS_P2;PMS_P1;PMS_P2;Temp;Humidity;BMP_temperature;BMP_pressure;BME280_temperature;BME280_humidity;BME280_pressure;Samples;Min_cycle;Max_cycle;Signal;HPM_P1;HPM_P2
2022/08/07 00:02:49;;;;;;;0.00;0.00;;;;;;;;;;12275048;19;20003;-66
2022/08/07 00:06:49;;;;;;;0.00;0.00;;;;;;;;;;12267059;19;20014;-66
2022/08/07 00:10:50;;;;;;;0.00;0.00;;;;;;;;;;12271933;19;20028;-65
2022/08/07 00:14:51;;;;;;;0.00;0.00;;;;;;;;;;12267087;19;20257;-65
2022/08/07 00:18:51;;;;;;;0.00;0.00;;;;;;;;;;12272838;19;20226;-66
2022/08/07 00:22:52;;;;;;;0.00;0.00;;;;;;;;;;12267333;19;20003;-66
2022/08/07 00:26:52;;;;;;;0.00;0.00;;;;;;;;;;12271429;19;19995;-65
2022/08/07 00:30:53;;;;;;;0.00;0.00;;;;;;;;;;12267490;19;19983;-65
2022/08/07 00:34:53;;;;;;;0.00;0.00;;;;;;;;;;12272357;19;20134;-65
2022/08/07 00:38:54;;;;;;;0.00;0.00;;;;;;;;;;12267287;19;19994;-66
2022/08/07 00:42:55;;;;;;;0.00;0.00;;;;;;;;;;12271792;19;19995;-65
2022/08/07 00:46:55;;;;;;;0.00;0.00;;;;;;;;;;12262906;19;20007;-65
2022/08/07 00:50:56;;;;;;;0.00;0.00;;;;;;;;;;12272757;19;20266;-65
2022/08/07 00:54:56;;;;;;;0.00;0.00;;;;;;;;;;12267572;19;20202;-65
2022/08/07 00:58:57;;;;;;;0.00;0.00;;;;;;;;;;12271368;19;19998;-65
2022/08/07 01:02:58;;;;;;;0.00;0.00;;;;;;;;;;12270504;19;20054;-65
2022/08/07 01:07:00;;;;;;;0.00;0.00;;;;;;;;;;12263817;19;19993;-65
2022/08/07 01:11:01;;;;;;;0.00;0.00;;;;;;;;;;12267612;19;20002;-65
2022/08/07 01:15:02;;;;;;;0.00;0.00;;;;;;;;;;12266004;19;20363;-65
2022/08/07 01:19:04;;;;;;;0.00;0.00;;;;;;;;;;12272153;19;19998;-65
2022/08/07 01:23:04;;;;;;;0.00;0.00;;;;;;;;;;12267984;19;19987;-65
2022/08/07 01:27:05;;;;;;;0.00;0.00;;;;;;;;;;12281422;19;20002;-65
2022/08/07 01:31:06;;;;;;;0.00;0.00;;;;;;;;;;12276181;19;20231;-65
2022/08/07 01:35:07;;;;;;;0.00;0.00;;;;;;;;;;12283938;19;19998;-65
2022/08/07 01:39:07;;;;;;;0.00;0.00;;;;;;;;;;12278312;19;20003;-65
2022/08/07 01:43:08;;;;;;;0.00;0.00;;;;;;;;;;12275182;19;20011;-65
2022/08/07 01:47:09;;;;;;;0.00;0.00;;;;;;;;;;12276477;19;20039;-65
2022/08/07 01:51:17;;;;;;;0.00;0.00;;;;;;;;;;12275993;19;20020;-66
2022/08/07 01:55:19;;;;;;;0.00;0.00;;;;;;;;;;12276397;19;20010;-65
2022/08/07 01:59:31;;;;;;;0.00;0.00;;;;;;;;;;12275393;19;19993;-65
2022/08/07 02:03:34;;;;;;;0.00;0.00;;;;;;;;;;12275389;19;20250;-65
2022/08/07 02:07:45;;;;;;;0.00;0.00;;;;;;;;;;12271394;19;19979;-66
2022/08/07 02:11:49;;;;;;;0.00;0.00;;;;;;;;;;12275406;19;19991;-65
2022/08/07 02:15:51;;;;;;;0.00;0.00;;;;;;;;;;12280321;19;20003;-65
2022/08/07 02:19:53;;;;;;;0.00;0.00;;;;;;;;;;12278245;19;20002;-65
2022/08/07 02:23:54;;;;;;;0.00;0.00;;;;;;;;;;12274333;19;19987;-66
2022/08/07 02:27:57;;;;;;;0.00;0.00;;;;;;;;;;12273671;19;20003;-65
2022/08/07 02:31:59;;;;;;;0.00;0.00;;;;;;;;;;12273108;19;20010;-65
2022/08/07 02:36:01;;;;;;;0.00;0.00;;;;;;;;;;12274649;19;20015;-65
2022/08/07 02:40:04;;;;;;;0.00;0.00;;;;;;;;;;12273398;19;19991;-65
2022/08/07 02:44:04;;;;;;;0.00;0.00;;;;;;;;;;12270303;19;20019;-66
2022/08/07 02:48:05;;;;;;;0.00;0.00;;;;;;;;;;12269861;19;19995;-66
2022/08/07 02:52:10;;;;;;;0.00;0.00;;;;;;;;;;12272197;19;20116;-66
2022/08/07 02:56:14;;;;;;;0.00;0.00;;;;;;;;;;12271578;19;20035;-66
2022/08/07 03:00:15;;;;;;;0.00;0.00;;;;;;;;;;12276345;19;20201;-66
2022/08/07 03:04:17;;;;;;;0.00;0.00;;;;;;;;;;12272491;19;20010;-66
2022/08/07 03:08:20;;;;;;;0.00;0.00;;;;;;;;;;12268039;19;19991;-66
2022/08/07 03:12:20;;;;;;;0.00;0.00;;;;;;;;;;12276449;19;19990;-66
2022/08/07 03:16:22;;;;;;;0.00;0.00;;;;;;;;;;12271971;19;20005;-66
2022/08/07 03:20:23;;;;;;;0.00;0.00;;;;;;;;;;12270569;19;19991;-66
2022/08/07 03:24:23;;;;;;;0.00;0.00;;;;;;;;;;12274658;19;19997;-66
2022/08/07 03:28:25;;;;;;;0.00;0.00;;;;;;;;;;12267340;19;20006;-66
2022/08/07 03:32:32;;;;;;;0.00;0.00;;;;;;;;;;12275245;19;20020;-66
2022/08/07 03:36:33;;;;;;;0.00;0.00;;;;;;;;;;12274780;19;20210;-66
2022/08/07 03:40:34;;;;;;;0.00;0.00;;;;;;;;;;12272567;19;19990;-66
2022/08/07 03:44:37;;;;;;;0.00;0.00;;;;;;;;;;12267734;19;19998;-66
2022/08/07 03:48:38;;;;;;;0.00;0.00;;;;;;;;;;12266515;19;20218;-66
2022/08/07 03:52:41;;;;;;;0.00;0.00;;;;;;;;;;12270012;19;20193;-66
2022/08/07 03:56:41;;;;;;;0.00;0.00;;;;;;;;;;12272390;19;20261;-66
2022/08/07 04:00:44;;;;;;;0.00;0.00;;;;;;;;;;12276097;19;20222;-66
2022/08/07 04:04:44;;;;;;;0.00;0.00;;;;;;;;;;12269937;19;19990;-66
2022/08/07 04:08:46;;;;;;;0.00;0.00;;;;;;;;;;12273556;19;20003;-66
2022/08/07 04:12:48;;;;;;;0.00;0.00;;;;;;;;;;12274221;19;20139;-66
2022/08/07 04:16:49;;;;;;;0.00;0.00;;;;;;;;;;12270827;19;20006;-66
2022/08/07 04:20:49;;;;;;;0.00;0.00;;;;;;;;;;12267953;19;20007;-65
2022/08/07 04:24:50;;;;;;;0.00;0.00;;;;;;;;;;12267630;19;20016;-66
2022/08/07 04:28:51;;;;;;;0.00;0.00;;;;;;;;;;12273897;19;20002;-66
2022/08/07 04:32:52;;;;;;;0.00;0.00;;;;;;;;;;12270744;19;19995;-67
2022/08/07 04:36:53;;;;;;;0.00;0.00;;;;;;;;;;12269057;19;19999;-66
2022/08/07 04:40:54;;;;;;;0.00;0.00;;;;;;;;;;12269785;19;20051;-66
2022/08/07 04:44:57;;;;;;;0.00;0.00;;;;;;;;;;12264866;19;20031;-66
2022/08/07 04:49:18;;;;;;;0.00;0.00;;;;;;;;;;12272344;19;20319;-66
2022/08/07 04:53:33;;;;;;;0.00;0.00;;;;;;;;;;12270590;19;20003;-66
2022/08/07 04:57:38;;;;;;;0.00;0.00;;;;;;;;;;12269168;19;20233;-67
2022/08/07 05:02:01;;;;;;;0.00;0.00;;;;;;;;;;12280341;19;20131;-66
2022/08/07 05:06:21;;;;;;;0.00;0.00;;;;;;;;;;12278073;19;20222;-63
2022/08/07 05:10:40;;;;;;;0.00;0.00;;;;;;;;;;12276084;19;20028;-69
2022/08/07 05:14:44;;;;;;;0.00;0.00;;;;;;;;;;12280985;19;20250;-70
2022/08/07 05:18:59;;;;;;;0.00;0.00;;;;;;;;;;12275964;19;20218;-69
2022/08/07 05:23:10;;;;;;;0.00;0.00;;;;;;;;;;12281272;19;20002;-70
2022/08/07 05:27:13;;;;;;;0.00;0.00;;;;;;;;;;12276231;19;20058;-68
2022/08/07 05:31:16;;;;;;;0.00;0.00;;;;;;;;;;12283038;19;20074;-69
2022/08/07 05:35:18;;;;;;;0.00;0.00;;;;;;;;;;12283375;19;20002;-69
2022/08/07 05:39:21;;;;;;;0.00;0.00;;;;;;;;;;12280424;19;20231;-69
2022/08/07 05:43:22;;;;;;;0.00;0.00;;;;;;;;;;12277294;19;20031;-68
2022/08/07 05:47:23;;;;;;;0.00;0.00;;;;;;;;;;12279889;19;19999;-69
2022/08/07 05:51:24;;;;;;;0.00;0.00;;;;;;;;;;12280698;19;20021;-70
2022/08/07 05:55:25;;;;;;;0.00;0.00;;;;;;;;;;12273999;19;20021;-68
2022/08/07 05:59:27;;;;;;;0.00;0.00;;;;;;;;;;12282066;19;20014;-69
2022/08/07 06:03:29;;;;;;;0.00;0.00;;;;;;;;;;12273907;19;20007;-69
2022/08/07 06:07:31;;;;;;;;;;;;;;;;;;12277171;19;20076;-69
2022/08/07 06:11:33;;;;;;;0.00;0.00;;;;;;;;;;12280798;19;19907;-68
2022/08/07 06:15:35;;;;;;;0.00;0.00;;;;;;;;;;12275960;19;20124;-69
2022/08/07 06:19:37;;;;;;;0.00;0.00;;;;;;;;;;12276255;19;20006;-69
2022/08/07 06:23:38;;;;;;;0.00;0.00;;;;;;;;;;12278534;19;20095;-69
2022/08/07 06:27:39;;;;;;;0.00;0.00;;;;;;;;;;12276043;19;20007;-69
2022/08/07 06:31:40;;;;;;;0.00;0.00;;;;;;;;;;12279717;19;19990;-69
2022/08/07 06:35:40;;;;;;;0.00;0.00;;;;;;;;;;12280161;19;20003;-69
2022/08/07 06:39:40;;;;;;;0.00;0.00;;;;;;;;;;12274903;19;20003;-69
2022/08/07 06:43:43;;;;;;;0.00;0.00;;;;;;;;;;11850928;19;20094;-68
2022/08/07 06:47:44;;;;;;;0.00;0.00;;;;;;;;;;12150420;19;20236;-69
2022/08/07 06:51:46;;;;;;;0.00;0.00;;;;;;;;;;12278369;19;20249;-68
2022/08/07 06:55:47;;;;;;;;;;;;;;;;;;12279222;19;20174;-69
2022/08/07 06:59:48;;;;;;;0.00;0.00;;;;;;;;;;12276239;19;20143;-69
2022/08/07 07:03:50;;;;;;;0.00;0.00;;;;;;;;;;12271346;19;19999;-70
2022/08/07 07:07:50;;;;;;;0.00;0.00;;;;;;;;;;12273151;19;20017;-69
2022/08/07 07:12:08;;;;;;;0.00;0.00;;;;;;;;;;12276680;19;19999;-69
2022/08/07 07:16:14;;;;;;;0.00;0.00;;;;;;;;;;12276075;19;20007;-69
2022/08/07 07:20:22;;;;;;;0.00;0.00;;;;;;;;;;12273033;19;20003;-70
2022/08/07 07:24:23;;;;;;;0.00;0.00;;;;;;;;;;12279131;19;20155;-70
2022/08/07 07:28:28;;;;;;;0.00;0.00;;;;;;;;;;12268191;19;19987;-67
2022/08/07 07:32:32;;;;;;;0.00;0.00;;;;;;;;;;12275415;19;20134;-69
2022/08/07 07:36:34;;;;;;;0.00;0.00;;;;;;;;;;12275771;19;20054;-72
2022/08/07 07:40:36;;;;;;;0.00;0.00;;;;;;;;;;12276802;19;20003;-70
2022/08/07 07:44:40;;;;;;;0.00;0.00;;;;;;;;;;12268228;19;19999;-69
2022/08/07 07:48:42;;;;;;;0.00;0.00;;;;;;;;;;12273377;19;20006;-71
2022/08/07 07:52:44;;;;;;;0.00;0.00;;;;;;;;;;12273652;19;19999;-65
2022/08/07 07:56:45;;;;;;;0.00;0.00;;;;;;;;;;12267485;19;19979;-63
2022/08/07 08:00:47;;;;;;;0.00;0.00;;;;;;;;;;12272441;19;20007;-67
2022/08/07 08:04:49;;;;;;;0.00;0.00;;;;;;;;;;12269334;19;19989;-65
2022/08/07 08:08:51;;;;;;;0.00;0.00;;;;;;;;;;12268982;19;20018;-66
2022/08/07 08:12:52;;;;;;;0.00;0.00;;;;;;;;;;12271797;19;20007;-63
2022/08/07 08:16:54;;;;;;;0.00;0.00;;;;;;;;;;12275116;19;20029;-64
2022/08/07 08:20:57;;;;;;;;;;;;;;;;;;12275231;19;19983;-65
2022/08/07 08:29:18;;;;;;;0.00;0.00;;;;;;;;;;12272622;19;20009;-65
2022/08/07 08:33:21;;;;;;;0.00;0.00;;;;;;;;;;12280156;19;20007;-66
2022/08/07 08:37:23;;;;;;;0.00;0.00;;;;;;;;;;12281366;19;20013;-68
2022/08/07 08:41:30;;;;;;;0.00;0.00;;;;;;;;;;12283338;19;20011;-67
2022/08/07 08:45:37;;;;;;;0.00;0.00;;;;;;;;;;12280397;19;20005;-65
2022/08/07 08:50:13;;;;;;;0.00;0.00;;;;;;;;;;12279733;19;20014;-65
2022/08/07 08:54:35;;;;;;;0.00;0.00;;;;;;;;;;12283038;19;19999;-66
2022/08/07 08:58:55;;;;;;;0.00;0.00;;;;;;;;;;12282875;19;20020;-65
2022/08/07 09:02:59;;;;;;;0.00;0.00;;;;;;;;;;12278929;19;20414;-66
2022/08/07 09:07:11;;;;;;;0.00;0.00;;;;;;;;;;12279146;19;20242;-65
2022/08/07 09:11:21;;;;;;;0.00;0.00;;;;;;;;;;12275265;19;19994;-65
2022/08/07 09:15:36;;;;;;;0.00;0.00;;;;;;;;;;12282115;19;19999;-64
2022/08/07 09:19:56;;;;;;;0.00;0.00;;;;;;;;;;12279429;19;20006;-66
2022/08/07 09:24:30;;;;;;;0.00;0.00;;;;;;;;;;12280345;19;20068;-65
2022/08/07 09:28:38;;;;;;;0.00;0.00;;;;;;;;;;12279418;19;20007;-63
2022/08/07 09:32:57;;;;;;;0.00;0.00;;;;;;;;;;12281917;19;20019;-63
2022/08/07 09:37:25;;;;;;;0.00;0.00;;;;;;;;;;12281378;19;20126;-64
2022/08/07 09:41:37;;;;;;;0.00;0.00;;;;;;;;;;12276955;19;20066;-63
2022/08/07 09:45:56;;;;;;;0.00;0.00;;;;;;;;;;12276287;19;20003;-63
2022/08/07 09:50:09;;;;;;;0.00;0.00;;;;;;;;;;12283112;19;19995;-63
2022/08/07 09:54:21;;;;;;;0.00;0.00;;;;;;;;;;12282017;19;20014;-63
2022/08/07 09:58:40;;;;;;;0.00;0.00;;;;;;;;;;12275407;19;20002;-65
2022/08/07 10:02:47;;;;;;;0.00;0.00;;;;;;;;;;12278880;19;20034;-64
2022/08/07 10:07:19;;;;;;;0.00;0.00;;;;;;;;;;12278750;19;20267;-63
2022/08/07 10:11:43;;;;;;;0.00;0.00;;;;;;;;;;12278248;19;20211;-64
2022/08/07 10:16:13;;;;;;;0.00;0.00;;;;;;;;;;12275648;19;20018;-65
2022/08/07 10:20:23;;;;;;;0.00;0.00;;;;;;;;;;12277948;19;20223;-65
2022/08/07 10:24:58;;;;;;;0.00;0.00;;;;;;;;;;12281498;19;20014;-63
2022/08/07 10:29:19;;;;;;;0.00;0.00;;;;;;;;;;12278111;19;19997;-63
2022/08/07 10:33:45;;;;;;;0.00;0.00;;;;;;;;;;12273917;19;20011;-62
2022/08/07 10:38:03;;;;;;;0.00;0.00;;;;;;;;;;12276515;19;20006;-63
2022/08/07 10:42:26;;;;;;;0.00;0.00;;;;;;;;;;12275360;19;20021;-62
2022/08/07 10:46:34;;;;;;;0.03;0.03;;;;;;;;;;12274045;19;20002;-62
2022/08/07 10:51:08;;;;;;;0.00;0.00;;;;;;;;;;12278500;19;20243;-60
2022/08/07 10:55:17;;;;;;;0.00;0.00;;;;;;;;;;12267757;19;20035;-60
2022/08/07 10:59:42;;;;;;;0.00;0.00;;;;;;;;;;12273098;19;20033;-59
2022/08/07 11:03:56;;;;;;;0.00;0.00;;;;;;;;;;12271449;19;20220;-62
2022/08/07 11:08:25;;;;;;;0.00;0.00;;;;;;;;;;12269515;19;20162;-61
2022/08/07 11:12:37;;;;;;;0.00;0.00;;;;;;;;;;12271830;19;20011;-61
2022/08/07 11:17:02;;;;;;;0.00;0.00;;;;;;;;;;12271931;19;20006;-62
2022/08/07 11:21:10;;;;;;;0.00;0.00;;;;;;;;;;12270578;19;19991;-62
2022/08/07 11:25:19;;;;;;;0.00;0.00;;;;;;;;;;12266701;19;20010;-59
2022/08/07 11:29:45;;;;;;;0.00;0.00;;;;;;;;;;12268570;19;20062;-60
2022/08/07 11:33:52;;;;;;;0.00;0.00;;;;;;;;;;12277222;19;20032;-61
2022/08/07 11:38:21;;;;;;;0.00;0.00;;;;;;;;;;12275588;19;19998;-60
2022/08/07 11:42:51;;;;;;;0.00;0.00;;;;;;;;;;12274202;19;20003;-63
2022/08/07 11:47:24;;;;;;;0.00;0.00;;;;;;;;;;12273620;19;20007;-61
2022/08/07 11:51:28;;;;;;;0.00;0.00;;;;;;;;;;12277152;19;19999;-62
2022/08/07 11:55:56;;;;;;;0.00;0.00;;;;;;;;;;12274123;19;20022;-62
2022/08/07 12:00:06;;;;;;;0.00;0.00;;;;;;;;;;12273097;19;20011;-60
2022/08/07 12:04:26;;;;;;;0.00;0.00;;;;;;;;;;12274320;19;19998;-60
2022/08/07 12:08:37;;;;;;;0.00;0.00;;;;;;;;;;12272200;19;20026;-61
2022/08/07 12:12:52;;;;;;;0.00;0.00;;;;;;;;;;12271225;19;20123;-59
2022/08/07 12:17:13;;;;;;;0.00;0.00;;;;;;;;;;12275713;19;19994;-64
2022/08/07 12:21:20;;;;;;;0.00;0.00;;;;;;;;;;12270581;19;20019;-62
2022/08/07 12:25:52;;;;;;;0.00;0.00;;;;;;;;;;12272300;19;20274;-64
2022/08/07 12:30:04;;;;;;;0.00;0.00;;;;;;;;;;12272452;19;20174;-61
2022/08/07 12:34:06;;;;;;;0.00;0.00;;;;;;;;;;12268901;19;20002;-61
2022/08/07 12:38:07;;;;;;;0.00;0.00;;;;;;;;;;12271423;19;20027;-60
2022/08/07 12:42:09;;;;;;;0.00;0.00;;;;;;;;;;12273386;19;20022;-60
2022/08/07 12:46:40;;;;;;;0.00;0.00;;;;;;;;;;12265992;19;20023;-62
2022/08/07 12:50:53;;;;;;;0.00;0.00;;;;;;;;;;12272727;19;20233;-62
2022/08/07 12:54:56;;;;;;;0.00;0.00;;;;;;;;;;12274754;19;20003;-59
2022/08/07 12:58:59;;;;;;;0.00;0.00;;;;;;;;;;12270017;19;20003;-59
2022/08/07 13:03:24;;;;;;;0.00;0.00;;;;;;;;;;12194273;19;19999;-61
2022/08/07 13:07:34;;;;;;;0.00;0.00;;;;;;;;;;12205912;19;20022;-62
2022/08/07 13:12:02;;;;;;;0.00;0.00;;;;;;;;;;12270793;19;20010;-60
2022/08/07 13:16:33;;;;;;;0.00;0.00;;;;;;;;;;12270496;19;20007;-63
2022/08/07 13:20:42;;;;;;;0.00;0.00;;;;;;;;;;12276749;19;20078;-61
2022/08/07 13:25:04;;;;;;;0.00;0.00;;;;;;;;;;12279593;19;20183;-63
2022/08/07 13:29:32;;;;;;;0.00;0.00;;;;;;;;;;12280837;19;20238;-63
2022/08/07 13:33:43;;;;;;;0.00;0.00;;;;;;;;;;12281986;19;20027;-61
2022/08/07 13:38:02;;;;;;;0.00;0.00;;;;;;;;;;12281623;19;19994;-64
2022/08/07 13:42:08;;;;;;;0.00;0.00;;;;;;;;;;12280989;19;19998;-62
2022/08/07 13:46:12;;;;;;;0.00;0.00;;;;;;;;;;12276863;19;20002;-62
2022/08/07 13:50:13;;;;;;;0.00;0.00;;;;;;;;;;12282364;19;20014;-62
2022/08/07 13:54:15;;;;;;;0.00;0.00;;;;;;;;;;12282642;19;19998;-62
2022/08/07 14:02:39;;;;;;;0.00;0.00;;;;;;;;;;12280723;19;20023;-61
2022/08/07 14:06:43;;;;;;;0.00;0.00;;;;;;;;;;12279885;19;20058;-63
2022/08/07 14:10:45;;;;;;;0.00;0.00;;;;;;;;;;12279311;19;20019;-63
2022/08/07 14:14:50;;;;;;;0.00;0.00;;;;;;;;;;12277545;19;20038;-62
2022/08/07 14:18:54;;;;;;;0.00;0.00;;;;;;;;;;12277073;19;20007;-62
2022/08/07 14:23:16;;;;;;;0.00;0.00;;;;;;;;;;12279741;19;20107;-63
2022/08/07 14:27:25;;;;;;;0.00;0.00;;;;;;;;;;12272856;19;20136;-63
2022/08/07 14:31:26;;;;;;;0.00;0.00;;;;;;;;;;12275639;19;20006;-62
2022/08/07 14:35:30;;;;;;;0.00;0.00;;;;;;;;;;12279313;19;20181;-64
2022/08/07 14:39:36;;;;;;;0.00;0.00;;;;;;;;;;12278059;19;20050;-61
2022/08/07 14:43:42;;;;;;;0.00;0.00;;;;;;;;;;12276333;19;20300;-60
2022/08/07 14:47:44;;;;;;;0.00;0.00;;;;;;;;;;12273624;19;20021;-63
2022/08/07 14:51:46;;;;;;;0.00;0.00;;;;;;;;;;12278789;19;20003;-69
2022/08/07 14:55:48;;;;;;;0.00;0.00;;;;;;;;;;12275055;19;20020;-60
2022/08/07 14:59:51;;;;;;;0.00;0.00;;;;;;;;;;12273791;19;20020;-60
2022/08/07 15:03:52;;;;;;;0.00;0.00;;;;;;;;;;12275555;19;20457;-62
2022/08/07 15:07:53;;;;;;;0.00;0.00;;;;;;;;;;12268891;19;20003;-61
2022/08/07 15:11:59;;;;;;;0.00;0.00;;;;;;;;;;12275011;19;19998;-63
2022/08/07 15:16:03;;;;;;;0.00;0.00;;;;;;;;;;12276218;19;20318;-63
2022/08/07 15:20:09;;;;;;;0.00;0.00;;;;;;;;;;12275865;19;19998;-60
2022/08/07 15:24:22;;;;;;;0.00;0.00;;;;;;;;;;12274267;19;20160;-60
2022/08/07 15:28:27;;;;;;;0.00;0.00;;;;;;;;;;12269416;19;20005;-62
2022/08/07 15:32:30;;;;;;;0.00;0.00;;;;;;;;;;12276744;19;20034;-61
2022/08/07 15:36:31;;;;;;;0.00;0.00;;;;;;;;;;12275619;19;20009;-62
2022/08/07 15:40:34;;;;;;;0.00;0.00;;;;;;;;;;12273024;19;19994;-61
2022/08/07 15:44:50;;;;;;;0.00;0.00;;;;;;;;;;12268800;19;20005;-63
2022/08/07 15:48:51;;;;;;;0.00;0.00;;;;;;;;;;12267636;19;20007;-64
2022/08/07 15:52:59;;;;;;;0.00;0.00;;;;;;;;;;12273012;19;20231;-63
2022/08/07 15:57:03;;;;;;;0.00;0.00;;;;;;;;;;12270642;19;20007;-61
2022/08/07 16:01:11;;;;;;;0.00;0.00;;;;;;;;;;12268563;19;19998;-64
2022/08/07 16:05:16;;;;;;;0.00;0.00;;;;;;;;;;12268266;19;20011;-60
2022/08/07 16:09:16;;;;;;;0.00;0.00;;;;;;;;;;12270949;19;20002;-61
2022/08/07 16:13:17;;;;;;;0.00;0.00;;;;;;;;;;12269633;19;20011;-61
2022/08/07 16:18:02;;;;;;;0.00;0.00;;;;;;;;;;12270800;19;20066;-61
2022/08/07 16:22:28;;;;;;;0.00;0.00;;;;;;;;;;12267609;19;20007;-58
2022/08/07 16:26:53;;;;;;;0.00;0.00;;;;;;;;;;12266822;19;20136;-62
2022/08/07 16:31:30;;;;;;;0.00;0.00;;;;;;;;;;12269652;19;20111;-61
2022/08/07 16:35:39;;;;;;;0.00;0.00;;;;;;;;;;12266467;19;20006;-60
2022/08/07 16:40:07;;;;;;;0.00;0.00;;;;;;;;;;12266888;19;20246;-60
2022/08/07 16:44:38;;;;;;;0.00;0.00;;;;;;;;;;12263979;19;20002;-61
2022/08/07 16:48:47;;;;;;;0.00;0.00;;;;;;;;;;12263829;19;20011;-60
2022/08/07 16:53:24;;;;;;;0.00;0.00;;;;;;;;;;12268320;19;20004;-61
2022/08/07 16:57:35;;;;;;;0.00;0.00;;;;;;;;;;12280364;19;20100;-60
2022/08/07 17:02:00;;;;;;;0.00;0.00;;;;;;;;;;12281523;19;20076;-59
2022/08/07 17:06:16;;;;;;;0.00;0.00;;;;;;;;;;12281637;19;20046;-62
2022/08/07 17:10:37;;;;;;;0.00;0.00;;;;;;;;;;12281979;19;20215;-62
2022/08/07 17:14:59;;;;;;;0.00;0.00;;;;;;;;;;12282829;19;20009;-60
2022/08/07 17:19:19;;;;;;;0.00;0.00;;;;;;;;;;12278682;19;20003;-61
2022/08/07 17:23:23;;;;;;;0.00;0.00;;;;;;;;;;12282375;19;19998;-60
2022/08/07 17:27:42;;;;;;;0.00;0.00;;;;;;;;;;12277465;19;20010;-59
2022/08/07 17:31:57;;;;;;;0.00;0.00;;;;;;;;;;12280322;19;19999;-61
2022/08/07 17:36:12;;;;;;;0.00;0.00;;;;;;;;;;12282760;19;20318;-64
2022/08/07 17:40:30;;;;;;;0.00;0.00;;;;;;;;;;12280913;19;19999;-61
2022/08/07 17:44:39;;;;;;;0.00;0.00;;;;;;;;;;12275821;19;20253;-61
2022/08/07 17:48:58;;;;;;;0.00;0.00;;;;;;;;;;12276952;19;20123;-61
2022/08/07 17:53:11;;;;;;;0.00;0.00;;;;;;;;;;12275641;19;20010;-61
2022/08/07 17:57:23;;;;;;;0.00;0.00;;;;;;;;;;12277672;19;20006;-61
2022/08/07 18:01:32;;;;;;;0.00;0.00;;;;;;;;;;12281581;19;20002;-63
2022/08/07 18:06:02;;;;;;;0.00;0.00;;;;;;;;;;12274988;19;20140;-61
2022/08/07 18:10:21;;;;;;;0.00;0.00;;;;;;;;;;12280521;19;20002;-60
2022/08/07 18:14:42;;;;;;;0.00;0.00;;;;;;;;;;12275697;19;19991;-63
2022/08/07 18:18:46;;;;;;;0.00;0.00;;;;;;;;;;12281240;19;20000;-62
2022/08/07 18:23:00;;;;;;;0.00;0.00;;;;;;;;;;12274224;19;19983;-61
2022/08/07 18:27:39;;;;;;;0.00;0.00;;;;;;;;;;12273414;19;20015;-60
2022/08/07 18:31:59;;;;;;;0.00;0.00;;;;;;;;;;12273258;19;19986;-64
2022/08/07 18:36:37;;;;;;;0.00;0.00;;;;;;;;;;12277374;19;19999;-62
2022/08/07 18:40:44;;;;;;;0.00;0.00;;;;;;;;;;12280086;19;20054;-64
2022/08/07 18:44:50;;;;;;;0.00;0.00;;;;;;;;;;12270580;19;20158;-63
2022/08/07 18:49:12;;;;;;;0.00;0.00;;;;;;;;;;12269667;19;20270;-63
2022/08/07 18:53:15;;;;;;;0.00;0.00;;;;;;;;;;12274816;19;19994;-63
2022/08/07 18:57:50;;;;;;;0.00;0.00;;;;;;;;;;12275040;19;19999;-63
2022/08/07 19:01:56;;;;;;;0.00;0.00;;;;;;;;;;12272665;19;20012;-63
2022/08/07 19:06:13;;;;;;;0.00;0.00;;;;;;;;;;12275939;19;20020;-64
2022/08/07 19:10:23;;;;;;;0.00;0.00;;;;;;;;;;12276538;19;19999;-62
2022/08/07 19:14:56;;;;;;;0.00;0.00;;;;;;;;;;12276525;19;20010;-62
2022/08/07 19:19:26;;;;;;;0.00;0.00;;;;;;;;;;12276125;19;20018;-61
2022/08/07 19:23:35;;;;;;;0.00;0.00;;;;;;;;;;12272267;19;20023;-66
2022/08/07 19:27:38;;;;;;;0.00;0.00;;;;;;;;;;11823743;19;20208;-66
2022/08/07 19:31:43;;;;;;;0.00;0.00;;;;;;;;;;12219954;19;20006;-66
2022/08/07 19:35:55;;;;;;;0.00;0.00;;;;;;;;;;12275598;19;20026;-65
2022/08/07 19:40:00;;;;;;;0.00;0.00;;;;;;;;;;12273355;19;20080;-65
2022/08/07 19:44:01;;;;;;;0.00;0.00;;;;;;;;;;12268990;19;20207;-66
2022/08/07 19:48:01;;;;;;;0.00;0.00;;;;;;;;;;12273142;19;20068;-66
2022/08/07 19:52:03;;;;;;;0.00;0.00;;;;;;;;;;12270464;19;20008;-65
2022/08/07 19:56:10;;;;;;;0.00;0.00;;;;;;;;;;12275204;19;20070;-65
2022/08/07 20:00:12;;;;;;;0.00;0.00;;;;;;;;;;12274795;19;20067;-66
2022/08/07 20:04:15;;;;;;;0.00;0.00;;;;;;;;;;12278567;19;20007;-65
2022/08/07 20:08:22;;;;;;;0.00;0.00;;;;;;;;;;12271790;19;20219;-65
2022/08/07 20:12:24;;;;;;;0.00;0.00;;;;;;;;;;12274935;19;20065;-65
2022/08/07 20:16:29;;;;;;;0.00;0.00;;;;;;;;;;12270882;19;20035;-64
2022/08/07 20:20:32;;;;;;;0.00;0.00;;;;;;;;;;12268600;19;20011;-65
2022/08/07 20:24:35;;;;;;;0.00;0.00;;;;;;;;;;12271221;19;20018;-65
2022/08/07 20:28:38;;;;;;;0.00;0.00;;;;;;;;;;12271080;19;20010;-65
2022/08/07 20:32:43;;;;;;;0.00;0.00;;;;;;;;;;12268014;19;20010;-66
2022/08/07 20:36:44;;;;;;;0.00;0.00;;;;;;;;;;12269773;19;20070;-64
2022/08/07 20:40:49;;;;;;;0.00;0.00;;;;;;;;;;12275459;19;20027;-66
2022/08/07 20:44:51;;;;;;;0.00;0.00;;;;;;;;;;12270483;19;20096;-66
2022/08/07 20:48:55;;;;;;;0.00;0.00;;;;;;;;;;12270997;19;20017;-65
2022/08/07 20:52:56;;;;;;;0.00;0.00;;;;;;;;;;12272997;19;20007;-64
2022/08/07 20:57:02;;;;;;;0.00;0.00;;;;;;;;;;12273926;19;20122;-65
2022/08/07 21:01:10;;;;;;;0.00;0.00;;;;;;;;;;12267061;19;20010;-64
2022/08/07 21:05:20;;;;;;;0.00;0.00;;;;;;;;;;12267099;19;20235;-65
2022/08/07 21:09:21;;;;;;;0.00;0.00;;;;;;;;;;12265485;19;19991;-67
2022/08/07 21:13:24;;;;;;;0.00;0.00;;;;;;;;;;12274792;19;20126;-66
2022/08/07 21:17:25;;;;;;;;;;;;;;;;;;12270841;19;20152;-64
2022/08/07 21:21:30;;;;;;;0.00;0.00;;;;;;;;;;12272894;19;20068;-64
2022/08/07 21:25:56;;;;;;;0.00;0.00;;;;;;;;;;12266409;19;20002;-64
2022/08/07 21:30:12;;;;;;;0.00;0.00;;;;;;;;;;12267186;19;20111;-64
2022/08/07 21:34:23;;;;;;;0.00;0.00;;;;;;;;;;12265271;19;20003;-65
2022/08/07 21:38:36;;;;;;;0.00;0.00;;;;;;;;;;12269423;19;19999;-66
2022/08/07 21:43:04;;;;;;;0.00;0.00;;;;;;;;;;12279759;19;20125;-65
2022/08/07 21:47:34;;;;;;;0.00;0.00;;;;;;;;;;12272624;19;19994;-65
2022/08/07 21:52:00;;;;;;;0.00;0.00;;;;;;;;;;12283622;19;20066;-64
2022/08/07 21:56:10;;;;;;;0.00;0.00;;;;;;;;;;12280770;19;20003;-65
2022/08/07 22:00:14;;;;;;;0.00;0.00;;;;;;;;;;12275598;19;19986;-64
2022/08/07 22:04:20;;;;;;;0.00;0.00;;;;;;;;;;12277628;19;20012;-65
2022/08/07 22:08:25;;;;;;;0.00;0.00;;;;;;;;;;12272080;19;19979;-64
2022/08/07 22:12:27;;;;;;;0.00;0.00;;;;;;;;;;12280718;19;20206;-63
2022/08/07 22:16:33;;;;;;;0.00;0.00;;;;;;;;;;12275450;19;19995;-66
2022/08/07 22:20:39;;;;;;;0.00;0.00;;;;;;;;;;12279936;19;20002;-66
2022/08/07 22:24:48;;;;;;;0.00;0.00;;;;;;;;;;12275651;19;20099;-63
2022/08/07 22:29:22;;;;;;;0.00;0.00;;;;;;;;;;12276913;19;20003;-63
2022/08/07 22:33:33;;;;;;;0.00;0.00;;;;;;;;;;12275036;19;20048;-64
2022/08/07 22:37:40;;;;;;;0.00;0.00;;;;;;;;;;12273966;19;20010;-64
2022/08/07 22:42:04;;;;;;;0.00;0.00;;;;;;;;;;12273964;19;20006;-63
2022/08/07 22:46:11;;;;;;;0.00;0.00;;;;;;;;;;12269881;19;20017;-64
2022/08/07 22:50:28;;;;;;;0.00;0.00;;;;;;;;;;12280301;19;20003;-65
2022/08/07 22:55:06;;;;;;;0.00;0.00;;;;;;;;;;12278161;19;20003;-65
2022/08/07 22:59:39;;;;;;;0.00;0.00;;;;;;;;;;12275650;19;20034;-66
2022/08/07 23:03:57;;;;;;;0.00;0.00;;;;;;;;;;12275014;19;19995;-65
2022/08/07 23:08:33;;;;;;;0.00;0.00;;;;;;;;;;12269916;19;20006;-65
2022/08/07 23:13:11;;;;;;;0.00;0.00;;;;;;;;;;12272263;19;20030;-65
2022/08/07 23:17:49;;;;;;;0.00;0.00;;;;;;;;;;12271671;19;19991;-65
2022/08/07 23:22:14;;;;;;;0.00;0.00;;;;;;;;;;12271378;19;20083;-65
2022/08/07 23:26:19;;;;;;;0.00;0.00;;;;;;;;;;12277096;19;19998;-64
2022/08/07 23:30:41;;;;;;;0.00;0.00;;;;;;;;;;12275862;19;20014;-65
2022/08/07 23:34:56;;;;;;;0.00;0.00;;;;;;;;;;12273603;19;20050;-65
2022/08/07 23:39:22;;;;;;;0.00;0.00;;;;;;;;;;12272049;19;20131;-64
2022/08/07 23:43:35;;;;;;;0.00;0.00;;;;;;;;;;12271257;19;19999;-65
2022/08/07 23:47:44;;;;;;;0.00;0.00;;;;;;;;;;12268012;19;19995;-65
2022/08/07 23:51:49;;;;;;;0.00;0.00;;;;;;;;;;12270038;19;19995;-65
2022/08/07 23:56:06;;;;;;;0.00;0.00;;;;;;;;;;12273549;19;20023;-65
